ruta-branagallones-pr-as-66.gpx<?xml version="1.0" encoding="UTF-8" standalone="no" ?>
<gpx xmlns="http://www.topografix.com/GPX/1/1" xmlns:gpxtpx="http://www.garmin.com/xmlschemas/TrackPointExtension/v1" creator="Mapas de España v.2.0.1" version="1.1" xmlns:xsi="http://www.w3.org/2001/XMLSchema-instance" xsi:schemaLocation="http://www.topografix.com/GPX/1/1 http://www.topografix.com/GPX/1/1/gpx.xsd">
<metadata>
<name><![CDATA[2021-03-03 11:24:37]]></name>
<link href="https://www.oruxmaps.com">
<text>Mapas de España</text>
</link>
<time>2021-03-03T10:24:37.970Z</time><bounds maxlat="43.1522092" maxlon="-5.2891605" minlat="43.1060197" minlon="-5.3195813"/>
</metadata>
<wpt lat="43.1522092" lon="-5.2902584">
<ele>662.15</ele>
<time>2021-03-03T10:24:38.414Z</time>
<name><![CDATA[0000187]]></name>
<sym>Waypoint</sym>
<type>Comienzo</type>
<extensions>
<om:oruxmapsextensions xmlns:om="http://www.oruxmaps.com/oruxmapsextensions/1/0">
<om:ext type="ICON" subtype="0">38</om:ext>
</om:oruxmapsextensions>
</extensions>
</wpt>
<wpt lat="43.1060197" lon="-5.3072263">
<ele>1204.06</ele>
<time>2021-03-03T14:30:31.737Z</time>
<name><![CDATA[0000188]]></name>
<desc><![CDATA[<p><br /><h3>Nombre: Segmento: 1</h3><br />Hora Inicio: 11:24 3 mar. 2021<br/>Hora Fin: 15:29 3 mar. 2021<br/>Distancia recorrida: 10,2km (04:05)<br/>Tiempo en movimiento: 03:30<br/>Velocidad media: 2,49 km/h<br/>Vel. en Mov.: 2,9 km/h<br/>Velocidad Máxima: 5,57 km/h<br/>Altura Mínima: 644 m<br/>Altura Máxima: 1205 m<br/>Velocidad Ascenso: 235,7 m/h<br/>Velocidad Descenso: 175,7 m/h<br/>Ganancia Altitud: 679 m<br/>Pérdida Altitud: 145 m<br/>Tiempo Ascenso: 02:52<br/>Tiempo Descenso: 00:49<br/></p>]]></desc>
<sym>Waypoint</sym>
<type>Final</type>
<extensions>
<om:oruxmapsextensions xmlns:om="http://www.oruxmaps.com/oruxmapsextensions/1/0">
<om:ext type="ICON" subtype="0">15</om:ext>
</om:oruxmapsextensions>
</extensions>
</wpt>
<trk>
<name><![CDATA[2021-03-03 11:24:37]]></name>
<desc><![CDATA[<p>Hora Inicio: 11:24 3 mar. 2021<br/>Hora Fin: 15:29 3 mar. 2021<br/>Distancia recorrida: 10,2 km (04:05)<br/>Tiempo en movimiento: 03:30<br/>Velocidad media: 2,49 km/h<br/>Vel. en Mov.: 2,9 km/h<br/>Velocidad Máxima: 5,57 km/h<br/>Altura Mínima: 644 m<br/>Altura Máxima: 1205 m<br/>Velocidad Ascenso: 235,7 m/h<br/>Velocidad Descenso: 175,7 m/h<br/>Ganancia Altitud: 679 m<br/>Pérdida Altitud: 145 m<br/>Tiempo Ascenso: 02:52<br/>Tiempo Descenso: 00:49<br/></p><hr align="center" width="480" style="height: 2px; width: 517px"/>]]></desc>
<type>Indefinido</type>
<extensions>
<om:oruxmapsextensions xmlns:om="http://www.oruxmaps.com/oruxmapsextensions/1/0">
<om:ext type="TYPE" subtype="0">0</om:ext>
<om:ext type="DIFFICULTY">0</om:ext>
</om:oruxmapsextensions>
</extensions>
<trkseg>
<trkpt lat="43.1522092" lon="-5.2902584">
<ele>662.15</ele>
<time>2021-03-03T10:24:41.000Z</time>
</trkpt>
<trkpt lat="43.1520410" lon="-5.2903731">
<ele>653.25</ele>
<time>2021-03-03T10:25:06.000Z</time>
</trkpt>
<trkpt lat="43.1518883" lon="-5.2905273">
<ele>651.24</ele>
<time>2021-03-03T10:25:26.000Z</time>
</trkpt>
<trkpt lat="43.1517274" lon="-5.2906714">
<ele>650.95</ele>
<time>2021-03-03T10:25:43.000Z</time>
</trkpt>
<trkpt lat="43.1515685" lon="-5.2907962">
<ele>646.98</ele>
<time>2021-03-03T10:26:00.000Z</time>
</trkpt>
<trkpt lat="43.1514184" lon="-5.2909387">
<ele>644.92</ele>
<time>2021-03-03T10:26:29.000Z</time>
</trkpt>
<trkpt lat="43.1513189" lon="-5.2911532">
<ele>669.94</ele>
<time>2021-03-03T10:32:14.000Z</time>
</trkpt>
<trkpt lat="43.1512619" lon="-5.2913933">
<ele>667.26</ele>
<time>2021-03-03T10:32:51.000Z</time>
</trkpt>
<trkpt lat="43.1511306" lon="-5.2915818">
<ele>664.25</ele>
<time>2021-03-03T10:33:08.000Z</time>
</trkpt>
<trkpt lat="43.1509957" lon="-5.2917573">
<ele>661.95</ele>
<time>2021-03-03T10:33:29.000Z</time>
</trkpt>
<trkpt lat="43.1509459" lon="-5.2920072">
<ele>662.92</ele>
<time>2021-03-03T10:33:47.000Z</time>
</trkpt>
<trkpt lat="43.1508531" lon="-5.2922371">
<ele>664.95</ele>
<time>2021-03-03T10:34:19.000Z</time>
</trkpt>
<trkpt lat="43.1506886" lon="-5.2923571">
<ele>664.94</ele>
<time>2021-03-03T10:35:03.000Z</time>
</trkpt>
<trkpt lat="43.1505246" lon="-5.2922548">
<ele>669.94</ele>
<time>2021-03-03T10:35:22.000Z</time>
</trkpt>
<trkpt lat="43.1504140" lon="-5.2920510">
<ele>669.93</ele>
<time>2021-03-03T10:35:46.000Z</time>
</trkpt>
<trkpt lat="43.1504070" lon="-5.2917995">
<ele>672.18</ele>
<time>2021-03-03T10:36:25.000Z</time>
</trkpt>
<trkpt lat="43.1503500" lon="-5.2915594">
<ele>675.83</ele>
<time>2021-03-03T10:37:30.000Z</time>
</trkpt>
<trkpt lat="43.1502692" lon="-5.2913241">
<ele>676.93</ele>
<time>2021-03-03T10:37:46.000Z</time>
</trkpt>
<trkpt lat="43.1501605" lon="-5.2911171">
<ele>679.95</ele>
<time>2021-03-03T10:38:29.000Z</time>
</trkpt>
<trkpt lat="43.1500433" lon="-5.2909179">
<ele>680.66</ele>
<time>2021-03-03T10:38:47.000Z</time>
</trkpt>
<trkpt lat="43.1499277" lon="-5.2907209">
<ele>685.65</ele>
<time>2021-03-03T10:39:11.000Z</time>
</trkpt>
<trkpt lat="43.1498359" lon="-5.2905058">
<ele>685.96</ele>
<time>2021-03-03T10:39:51.000Z</time>
</trkpt>
<trkpt lat="43.1497472" lon="-5.2902788">
<ele>688.95</ele>
<time>2021-03-03T10:40:39.000Z</time>
</trkpt>
<trkpt lat="43.1497035" lon="-5.2905197">
<ele>692.93</ele>
<time>2021-03-03T10:41:09.000Z</time>
</trkpt>
<trkpt lat="43.1497116" lon="-5.2907667">
<ele>695.96</ele>
<time>2021-03-03T10:41:31.000Z</time>
</trkpt>
<trkpt lat="43.1497457" lon="-5.2910126">
<ele>700.65</ele>
<time>2021-03-03T10:42:17.000Z</time>
</trkpt>
<trkpt lat="43.1497315" lon="-5.2912692">
<ele>707.96</ele>
<time>2021-03-03T10:42:46.000Z</time>
</trkpt>
<trkpt lat="43.1497492" lon="-5.2915158">
<ele>710.04</ele>
<time>2021-03-03T10:43:07.000Z</time>
</trkpt>
<trkpt lat="43.1495712" lon="-5.2914631">
<ele>713.95</ele>
<time>2021-03-03T10:43:45.000Z</time>
</trkpt>
<trkpt lat="43.1494728" lon="-5.2912517">
<ele>715.93</ele>
<time>2021-03-03T10:44:06.000Z</time>
</trkpt>
<trkpt lat="43.1493736" lon="-5.2910431">
<ele>716.87</ele>
<time>2021-03-03T10:44:35.000Z</time>
</trkpt>
<trkpt lat="43.1492359" lon="-5.2908772">
<ele>723.16</ele>
<time>2021-03-03T10:44:58.000Z</time>
</trkpt>
<trkpt lat="43.1490949" lon="-5.2907183">
<ele>724.66</ele>
<time>2021-03-03T10:45:28.000Z</time>
</trkpt>
<trkpt lat="43.1489082" lon="-5.2906968">
<ele>725.96</ele>
<time>2021-03-03T10:45:53.000Z</time>
</trkpt>
<trkpt lat="43.1487155" lon="-5.2906220">
<ele>733.66</ele>
<time>2021-03-03T10:46:20.000Z</time>
</trkpt>
<trkpt lat="43.1485303" lon="-5.2906120">
<ele>737.87</ele>
<time>2021-03-03T10:46:44.000Z</time>
</trkpt>
<trkpt lat="43.1483493" lon="-5.2906029">
<ele>737.99</ele>
<time>2021-03-03T10:47:00.000Z</time>
</trkpt>
<trkpt lat="43.1481651" lon="-5.2905763">
<ele>736.95</ele>
<time>2021-03-03T10:47:20.000Z</time>
</trkpt>
<trkpt lat="43.1480935" lon="-5.2903404">
<ele>742.93</ele>
<time>2021-03-03T10:48:30.000Z</time>
</trkpt>
<trkpt lat="43.1481167" lon="-5.2900860">
<ele>739.94</ele>
<time>2021-03-03T10:49:08.000Z</time>
</trkpt>
<trkpt lat="43.1481480" lon="-5.2898397">
<ele>744.86</ele>
<time>2021-03-03T10:49:25.000Z</time>
</trkpt>
<trkpt lat="43.1480820" lon="-5.2896033">
<ele>747.96</ele>
<time>2021-03-03T10:50:02.000Z</time>
</trkpt>
<trkpt lat="43.1479734" lon="-5.2894022">
<ele>746.97</ele>
<time>2021-03-03T10:50:27.000Z</time>
</trkpt>
<trkpt lat="43.1478292" lon="-5.2892485">
<ele>745.96</ele>
<time>2021-03-03T10:51:19.000Z</time>
</trkpt>
<trkpt lat="43.1476598" lon="-5.2891605">
<ele>742.97</ele>
<time>2021-03-03T10:51:38.000Z</time>
</trkpt>
<trkpt lat="43.1474838" lon="-5.2892194">
<ele>745.06</ele>
<time>2021-03-03T10:53:29.000Z</time>
</trkpt>
<trkpt lat="43.1473100" lon="-5.2893168">
<ele>738.99</ele>
<time>2021-03-03T10:53:55.000Z</time>
</trkpt>
<trkpt lat="43.1471511" lon="-5.2894514">
<ele>736.96</ele>
<time>2021-03-03T10:54:19.000Z</time>
</trkpt>
<trkpt lat="43.1469762" lon="-5.2895220">
<ele>734.96</ele>
<time>2021-03-03T10:54:43.000Z</time>
</trkpt>
<trkpt lat="43.1468339" lon="-5.2896885">
<ele>738.61</ele>
<time>2021-03-03T10:55:43.000Z</time>
</trkpt>
<trkpt lat="43.1466738" lon="-5.2898065">
<ele>736.76</ele>
<time>2021-03-03T10:56:04.000Z</time>
</trkpt>
<trkpt lat="43.1465777" lon="-5.2900235">
<ele>739.94</ele>
<time>2021-03-03T10:56:26.000Z</time>
</trkpt>
<trkpt lat="43.1465139" lon="-5.2902598">
<ele>743.96</ele>
<time>2021-03-03T10:56:46.000Z</time>
</trkpt>
<trkpt lat="43.1463971" lon="-5.2904576">
<ele>743.97</ele>
<time>2021-03-03T10:57:04.000Z</time>
</trkpt>
<trkpt lat="43.1462132" lon="-5.2905111">
<ele>742.88</ele>
<time>2021-03-03T10:57:26.000Z</time>
</trkpt>
<trkpt lat="43.1460384" lon="-5.2904306">
<ele>743.97</ele>
<time>2021-03-03T10:57:47.000Z</time>
</trkpt>
<trkpt lat="43.1460825" lon="-5.2906728">
<ele>774.86</ele>
<time>2021-03-03T10:58:46.000Z</time>
</trkpt>
<trkpt lat="43.1462630" lon="-5.2907150">
<ele>780.94</ele>
<time>2021-03-03T10:59:07.000Z</time>
</trkpt>
<trkpt lat="43.1464198" lon="-5.2905906">
<ele>781.97</ele>
<time>2021-03-03T10:59:23.000Z</time>
</trkpt>
<trkpt lat="43.1465928" lon="-5.2905150">
<ele>785.57</ele>
<time>2021-03-03T10:59:41.000Z</time>
</trkpt>
<trkpt lat="43.1467644" lon="-5.2905994">
<ele>797.93</ele>
<time>2021-03-03T11:00:09.000Z</time>
</trkpt>
<trkpt lat="43.1468759" lon="-5.2907974">
<ele>801.87</ele>
<time>2021-03-03T11:00:34.000Z</time>
</trkpt>
<trkpt lat="43.1469296" lon="-5.2910333">
<ele>802.66</ele>
<time>2021-03-03T11:00:54.000Z</time>
</trkpt>
<trkpt lat="43.1469749" lon="-5.2912821">
<ele>805.87</ele>
<time>2021-03-03T11:01:14.000Z</time>
</trkpt>
<trkpt lat="43.1469956" lon="-5.2915270">
<ele>810.17</ele>
<time>2021-03-03T11:01:40.000Z</time>
</trkpt>
<trkpt lat="43.1469845" lon="-5.2917753">
<ele>810.96</ele>
<time>2021-03-03T11:02:02.000Z</time>
</trkpt>
<trkpt lat="43.1468955" lon="-5.2920018">
<ele>811.96</ele>
<time>2021-03-03T11:02:25.000Z</time>
</trkpt>
<trkpt lat="43.1467637" lon="-5.2921716">
<ele>814.60</ele>
<time>2021-03-03T11:02:49.000Z</time>
</trkpt>
<trkpt lat="43.1466375" lon="-5.2923620">
<ele>815.68</ele>
<time>2021-03-03T11:03:16.000Z</time>
</trkpt>
<trkpt lat="43.1466152" lon="-5.2926182">
<ele>816.96</ele>
<time>2021-03-03T11:03:37.000Z</time>
</trkpt>
<trkpt lat="43.1466802" lon="-5.2928558">
<ele>822.17</ele>
<time>2021-03-03T11:04:36.000Z</time>
</trkpt>
<trkpt lat="43.1467992" lon="-5.2930564">
<ele>822.96</ele>
<time>2021-03-03T11:04:52.000Z</time>
</trkpt>
<trkpt lat="43.1468848" lon="-5.2932736">
<ele>822.26</ele>
<time>2021-03-03T11:05:15.000Z</time>
</trkpt>
<trkpt lat="43.1470125" lon="-5.2934484">
<ele>824.96</ele>
<time>2021-03-03T11:05:39.000Z</time>
</trkpt>
<trkpt lat="43.1471229" lon="-5.2936509">
<ele>829.96</ele>
<time>2021-03-03T11:06:06.000Z</time>
</trkpt>
<trkpt lat="43.1471941" lon="-5.2938795">
<ele>833.65</ele>
<time>2021-03-03T11:08:49.000Z</time>
</trkpt>
<trkpt lat="43.1471995" lon="-5.2941334">
<ele>836.20</ele>
<time>2021-03-03T11:09:34.000Z</time>
</trkpt>
<trkpt lat="43.1471885" lon="-5.2943849">
<ele>837.96</ele>
<time>2021-03-03T11:10:01.000Z</time>
</trkpt>
<trkpt lat="43.1471924" lon="-5.2946355">
<ele>842.86</ele>
<time>2021-03-03T11:10:26.000Z</time>
</trkpt>
<trkpt lat="43.1471492" lon="-5.2948777">
<ele>847.04</ele>
<time>2021-03-03T11:12:01.000Z</time>
</trkpt>
<trkpt lat="43.1471329" lon="-5.2951308">
<ele>847.93</ele>
<time>2021-03-03T11:12:28.000Z</time>
</trkpt>
<trkpt lat="43.1471249" lon="-5.2953775">
<ele>849.95</ele>
<time>2021-03-03T11:12:50.000Z</time>
</trkpt>
<trkpt lat="43.1471992" lon="-5.2956127">
<ele>853.96</ele>
<time>2021-03-03T11:14:42.000Z</time>
</trkpt>
<trkpt lat="43.1472671" lon="-5.2958427">
<ele>856.96</ele>
<time>2021-03-03T11:14:59.000Z</time>
</trkpt>
<trkpt lat="43.1473372" lon="-5.2960759">
<ele>859.97</ele>
<time>2021-03-03T11:16:11.000Z</time>
</trkpt>
<trkpt lat="43.1473572" lon="-5.2963230">
<ele>863.99</ele>
<time>2021-03-03T11:16:55.000Z</time>
</trkpt>
<trkpt lat="43.1473170" lon="-5.2965691">
<ele>866.96</ele>
<time>2021-03-03T11:17:23.000Z</time>
</trkpt>
<trkpt lat="43.1473248" lon="-5.2968193">
<ele>873.87</ele>
<time>2021-03-03T11:18:03.000Z</time>
</trkpt>
<trkpt lat="43.1474169" lon="-5.2970350">
<ele>876.66</ele>
<time>2021-03-03T11:18:32.000Z</time>
</trkpt>
<trkpt lat="43.1473896" lon="-5.2972848">
<ele>879.96</ele>
<time>2021-03-03T11:18:59.000Z</time>
</trkpt>
<trkpt lat="43.1472623" lon="-5.2974677">
<ele>880.96</ele>
<time>2021-03-03T11:19:23.000Z</time>
</trkpt>
<trkpt lat="43.1471047" lon="-5.2976014">
<ele>882.04</ele>
<time>2021-03-03T11:21:43.000Z</time>
</trkpt>
<trkpt lat="43.1469284" lon="-5.2976851">
<ele>882.96</ele>
<time>2021-03-03T11:22:02.000Z</time>
</trkpt>
<trkpt lat="43.1467475" lon="-5.2976408">
<ele>885.93</ele>
<time>2021-03-03T11:22:21.000Z</time>
</trkpt>
<trkpt lat="43.1465644" lon="-5.2976129">
<ele>890.87</ele>
<time>2021-03-03T11:22:41.000Z</time>
</trkpt>
<trkpt lat="43.1463837" lon="-5.2975817">
<ele>891.96</ele>
<time>2021-03-03T11:23:02.000Z</time>
</trkpt>
<trkpt lat="43.1462025" lon="-5.2975524">
<ele>897.87</ele>
<time>2021-03-03T11:23:22.000Z</time>
</trkpt>
<trkpt lat="43.1460226" lon="-5.2975118">
<ele>902.26</ele>
<time>2021-03-03T11:24:00.000Z</time>
</trkpt>
<trkpt lat="43.1458337" lon="-5.2974869">
<ele>904.17</ele>
<time>2021-03-03T11:24:20.000Z</time>
</trkpt>
<trkpt lat="43.1456639" lon="-5.2975733">
<ele>906.66</ele>
<time>2021-03-03T11:24:44.000Z</time>
</trkpt>
<trkpt lat="43.1455033" lon="-5.2977129">
<ele>912.66</ele>
<time>2021-03-03T11:25:06.000Z</time>
</trkpt>
<trkpt lat="43.1453575" lon="-5.2978599">
<ele>914.95</ele>
<time>2021-03-03T11:25:44.000Z</time>
</trkpt>
<trkpt lat="43.1452007" lon="-5.2979831">
<ele>918.17</ele>
<time>2021-03-03T11:26:28.000Z</time>
</trkpt>
<trkpt lat="43.1450446" lon="-5.2981082">
<ele>919.90</ele>
<time>2021-03-03T11:26:57.000Z</time>
</trkpt>
<trkpt lat="43.1449106" lon="-5.2982853">
<ele>926.96</ele>
<time>2021-03-03T11:27:35.000Z</time>
</trkpt>
<trkpt lat="43.1447719" lon="-5.2984519">
<ele>929.66</ele>
<time>2021-03-03T11:28:57.000Z</time>
</trkpt>
<trkpt lat="43.1447095" lon="-5.2986949">
<ele>931.96</ele>
<time>2021-03-03T11:29:16.000Z</time>
</trkpt>
<trkpt lat="43.1447799" lon="-5.2989262">
<ele>933.96</ele>
<time>2021-03-03T11:29:36.000Z</time>
</trkpt>
<trkpt lat="43.1448783" lon="-5.2991471">
<ele>935.05</ele>
<time>2021-03-03T11:29:55.000Z</time>
</trkpt>
<trkpt lat="43.1449609" lon="-5.2993791">
<ele>936.66</ele>
<time>2021-03-03T11:30:13.000Z</time>
</trkpt>
<trkpt lat="43.1450654" lon="-5.2995954">
<ele>937.75</ele>
<time>2021-03-03T11:30:30.000Z</time>
</trkpt>
<trkpt lat="43.1451335" lon="-5.2998246">
<ele>941.96</ele>
<time>2021-03-03T11:31:08.000Z</time>
</trkpt>
<trkpt lat="43.1451656" lon="-5.3000696">
<ele>945.99</ele>
<time>2021-03-03T11:32:07.000Z</time>
</trkpt>
<trkpt lat="43.1451772" lon="-5.3003258">
<ele>946.96</ele>
<time>2021-03-03T11:32:36.000Z</time>
</trkpt>
<trkpt lat="43.1451742" lon="-5.3005812">
<ele>949.94</ele>
<time>2021-03-03T11:33:13.000Z</time>
</trkpt>
<trkpt lat="43.1451534" lon="-5.3008329">
<ele>952.66</ele>
<time>2021-03-03T11:33:47.000Z</time>
</trkpt>
<trkpt lat="43.1451563" lon="-5.3010839">
<ele>954.87</ele>
<time>2021-03-03T11:35:14.000Z</time>
</trkpt>
<trkpt lat="43.1451958" lon="-5.3013322">
<ele>959.96</ele>
<time>2021-03-03T11:36:11.000Z</time>
</trkpt>
<trkpt lat="43.1450135" lon="-5.3013508">
<ele>956.96</ele>
<time>2021-03-03T11:36:41.000Z</time>
</trkpt>
<trkpt lat="43.1451557" lon="-5.3015104">
<ele>965.96</ele>
<time>2021-03-03T11:38:46.000Z</time>
</trkpt>
<trkpt lat="43.1449923" lon="-5.3013959">
<ele>965.96</ele>
<time>2021-03-03T11:41:33.000Z</time>
</trkpt>
<trkpt lat="43.1448591" lon="-5.3012175">
<ele>966.96</ele>
<time>2021-03-03T11:41:58.000Z</time>
</trkpt>
<trkpt lat="43.1447117" lon="-5.3010642">
<ele>965.96</ele>
<time>2021-03-03T11:42:23.000Z</time>
</trkpt>
<trkpt lat="43.1445545" lon="-5.3009107">
<ele>970.66</ele>
<time>2021-03-03T11:43:00.000Z</time>
</trkpt>
<trkpt lat="43.1444245" lon="-5.3007287">
<ele>972.26</ele>
<time>2021-03-03T11:43:30.000Z</time>
</trkpt>
<trkpt lat="43.1442714" lon="-5.3005858">
<ele>974.96</ele>
<time>2021-03-03T11:44:05.000Z</time>
</trkpt>
<trkpt lat="43.1440990" lon="-5.3005146">
<ele>976.96</ele>
<time>2021-03-03T11:44:32.000Z</time>
</trkpt>
<trkpt lat="43.1439146" lon="-5.3005020">
<ele>980.96</ele>
<time>2021-03-03T11:44:56.000Z</time>
</trkpt>
<trkpt lat="43.1437250" lon="-5.3004955">
<ele>984.67</ele>
<time>2021-03-03T11:45:20.000Z</time>
</trkpt>
<trkpt lat="43.1435429" lon="-5.3005030">
<ele>986.97</ele>
<time>2021-03-03T11:46:19.000Z</time>
</trkpt>
<trkpt lat="43.1433600" lon="-5.3005810">
<ele>988.97</ele>
<time>2021-03-03T11:46:49.000Z</time>
</trkpt>
<trkpt lat="43.1431782" lon="-5.3006338">
<ele>992.88</ele>
<time>2021-03-03T11:47:50.000Z</time>
</trkpt>
<trkpt lat="43.1430022" lon="-5.3007008">
<ele>995.67</ele>
<time>2021-03-03T11:48:14.000Z</time>
</trkpt>
<trkpt lat="43.1428569" lon="-5.3008540">
<ele>995.97</ele>
<time>2021-03-03T11:48:38.000Z</time>
</trkpt>
<trkpt lat="43.1427146" lon="-5.3010057">
<ele>997.96</ele>
<time>2021-03-03T11:49:02.000Z</time>
</trkpt>
<trkpt lat="43.1425573" lon="-5.3011370">
<ele>1002.96</ele>
<time>2021-03-03T11:49:44.000Z</time>
</trkpt>
<trkpt lat="43.1424047" lon="-5.3009933">
<ele>1005.97</ele>
<time>2021-03-03T11:50:10.000Z</time>
</trkpt>
<trkpt lat="43.1423474" lon="-5.3007519">
<ele>1005.97</ele>
<time>2021-03-03T11:51:51.000Z</time>
</trkpt>
<trkpt lat="43.1422523" lon="-5.3005357">
<ele>1007.06</ele>
<time>2021-03-03T11:53:12.000Z</time>
</trkpt>
<trkpt lat="43.1421598" lon="-5.3003115">
<ele>1007.97</ele>
<time>2021-03-03T11:53:32.000Z</time>
</trkpt>
<trkpt lat="43.1420438" lon="-5.3001165">
<ele>1006.97</ele>
<time>2021-03-03T11:54:16.000Z</time>
</trkpt>
<trkpt lat="43.1419012" lon="-5.2999499">
<ele>1005.73</ele>
<time>2021-03-03T11:54:36.000Z</time>
</trkpt>
<trkpt lat="43.1417458" lon="-5.2998164">
<ele>1008.73</ele>
<time>2021-03-03T11:54:57.000Z</time>
</trkpt>
<trkpt lat="43.1415998" lon="-5.2996625">
<ele>1006.99</ele>
<time>2021-03-03T11:55:45.000Z</time>
</trkpt>
<trkpt lat="43.1414585" lon="-5.2994906">
<ele>1005.97</ele>
<time>2021-03-03T11:56:03.000Z</time>
</trkpt>
<trkpt lat="43.1413245" lon="-5.2993146">
<ele>1005.97</ele>
<time>2021-03-03T11:56:34.000Z</time>
</trkpt>
<trkpt lat="43.1411662" lon="-5.2991904">
<ele>1005.97</ele>
<time>2021-03-03T11:56:48.000Z</time>
</trkpt>
<trkpt lat="43.1409894" lon="-5.2991308">
<ele>1006.97</ele>
<time>2021-03-03T11:57:08.000Z</time>
</trkpt>
<trkpt lat="43.1408177" lon="-5.2990466">
<ele>1008.97</ele>
<time>2021-03-03T11:58:09.000Z</time>
</trkpt>
<trkpt lat="43.1406685" lon="-5.2989079">
<ele>1010.00</ele>
<time>2021-03-03T11:59:09.000Z</time>
</trkpt>
<trkpt lat="43.1405251" lon="-5.2987553">
<ele>1008.28</ele>
<time>2021-03-03T11:59:33.000Z</time>
</trkpt>
<trkpt lat="43.1403746" lon="-5.2986114">
<ele>1008.97</ele>
<time>2021-03-03T11:59:52.000Z</time>
</trkpt>
<trkpt lat="43.1402125" lon="-5.2984757">
<ele>1008.98</ele>
<time>2021-03-03T12:00:26.000Z</time>
</trkpt>
<trkpt lat="43.1400407" lon="-5.2983779">
<ele>1009.97</ele>
<time>2021-03-03T12:00:44.000Z</time>
</trkpt>
<trkpt lat="43.1398602" lon="-5.2983309">
<ele>1011.98</ele>
<time>2021-03-03T12:01:08.000Z</time>
</trkpt>
<trkpt lat="43.1396829" lon="-5.2982722">
<ele>1012.98</ele>
<time>2021-03-03T12:01:29.000Z</time>
</trkpt>
<trkpt lat="43.1395041" lon="-5.2982269">
<ele>1014.28</ele>
<time>2021-03-03T12:02:17.000Z</time>
</trkpt>
<trkpt lat="43.1393338" lon="-5.2981370">
<ele>1015.07</ele>
<time>2021-03-03T12:02:51.000Z</time>
</trkpt>
<trkpt lat="43.1391584" lon="-5.2980526">
<ele>1017.68</ele>
<time>2021-03-03T12:03:11.000Z</time>
</trkpt>
<trkpt lat="43.1389846" lon="-5.2979731">
<ele>1017.98</ele>
<time>2021-03-03T12:03:34.000Z</time>
</trkpt>
<trkpt lat="43.1388047" lon="-5.2979016">
<ele>1019.89</ele>
<time>2021-03-03T12:03:53.000Z</time>
</trkpt>
<trkpt lat="43.1386192" lon="-5.2978727">
<ele>1022.98</ele>
<time>2021-03-03T12:04:16.000Z</time>
</trkpt>
<trkpt lat="43.1384374" lon="-5.2978797">
<ele>1021.98</ele>
<time>2021-03-03T12:04:40.000Z</time>
</trkpt>
<trkpt lat="43.1382595" lon="-5.2979241">
<ele>1023.92</ele>
<time>2021-03-03T12:05:07.000Z</time>
</trkpt>
<trkpt lat="43.1381004" lon="-5.2980423">
<ele>1026.92</ele>
<time>2021-03-03T12:05:34.000Z</time>
</trkpt>
<trkpt lat="43.1379170" lon="-5.2980792">
<ele>1025.78</ele>
<time>2021-03-03T12:06:28.000Z</time>
</trkpt>
<trkpt lat="43.1377389" lon="-5.2980271">
<ele>1026.68</ele>
<time>2021-03-03T12:06:51.000Z</time>
</trkpt>
<trkpt lat="43.1375534" lon="-5.2980671">
<ele>1027.98</ele>
<time>2021-03-03T12:07:09.000Z</time>
</trkpt>
<trkpt lat="43.1373700" lon="-5.2981431">
<ele>1029.07</ele>
<time>2021-03-03T12:07:29.000Z</time>
</trkpt>
<trkpt lat="43.1371905" lon="-5.2982070">
<ele>1030.68</ele>
<time>2021-03-03T12:07:47.000Z</time>
</trkpt>
<trkpt lat="43.1370105" lon="-5.2982842">
<ele>1029.29</ele>
<time>2021-03-03T12:08:04.000Z</time>
</trkpt>
<trkpt lat="43.1368761" lon="-5.2984717">
<ele>1030.89</ele>
<time>2021-03-03T12:08:20.000Z</time>
</trkpt>
<trkpt lat="43.1369051" lon="-5.2987333">
<ele>1033.98</ele>
<time>2021-03-03T12:08:34.000Z</time>
</trkpt>
<trkpt lat="43.1369830" lon="-5.2989589">
<ele>1038.98</ele>
<time>2021-03-03T12:08:49.000Z</time>
</trkpt>
<trkpt lat="43.1370240" lon="-5.2992069">
<ele>1039.98</ele>
<time>2021-03-03T12:09:07.000Z</time>
</trkpt>
<trkpt lat="43.1370949" lon="-5.2994427">
<ele>1042.96</ele>
<time>2021-03-03T12:09:25.000Z</time>
</trkpt>
<trkpt lat="43.1372137" lon="-5.2996289">
<ele>1045.07</ele>
<time>2021-03-03T12:09:43.000Z</time>
</trkpt>
<trkpt lat="43.1371316" lon="-5.2998609">
<ele>1041.99</ele>
<time>2021-03-03T12:11:00.000Z</time>
</trkpt>
<trkpt lat="43.1369819" lon="-5.3000006">
<ele>1042.66</ele>
<time>2021-03-03T12:11:26.000Z</time>
</trkpt>
<trkpt lat="43.1368060" lon="-5.3000627">
<ele>1042.99</ele>
<time>2021-03-03T12:12:01.000Z</time>
</trkpt>
<trkpt lat="43.1366247" lon="-5.3000725">
<ele>1046.96</ele>
<time>2021-03-03T12:12:41.000Z</time>
</trkpt>
<trkpt lat="43.1364415" lon="-5.3000988">
<ele>1049.66</ele>
<time>2021-03-03T12:13:28.000Z</time>
</trkpt>
<trkpt lat="43.1362595" lon="-5.3001397">
<ele>1054.90</ele>
<time>2021-03-03T12:14:05.000Z</time>
</trkpt>
<trkpt lat="43.1360775" lon="-5.3001467">
<ele>1056.69</ele>
<time>2021-03-03T12:14:27.000Z</time>
</trkpt>
<trkpt lat="43.1358952" lon="-5.3001132">
<ele>1059.77</ele>
<time>2021-03-03T12:14:56.000Z</time>
</trkpt>
<trkpt lat="43.1357156" lon="-5.3000735">
<ele>1065.99</ele>
<time>2021-03-03T12:15:33.000Z</time>
</trkpt>
<trkpt lat="43.1355443" lon="-5.2999972">
<ele>1066.99</ele>
<time>2021-03-03T12:16:11.000Z</time>
</trkpt>
<trkpt lat="43.1353529" lon="-5.2999746">
<ele>1066.99</ele>
<time>2021-03-03T12:16:37.000Z</time>
</trkpt>
<trkpt lat="43.1351755" lon="-5.2999277">
<ele>1069.98</ele>
<time>2021-03-03T12:17:06.000Z</time>
</trkpt>
<trkpt lat="43.1350004" lon="-5.2998618">
<ele>1073.90</ele>
<time>2021-03-03T12:17:33.000Z</time>
</trkpt>
<trkpt lat="43.1348216" lon="-5.2998168">
<ele>1076.99</ele>
<time>2021-03-03T12:18:05.000Z</time>
</trkpt>
<trkpt lat="43.1346403" lon="-5.2998026">
<ele>1076.98</ele>
<time>2021-03-03T12:18:37.000Z</time>
</trkpt>
<trkpt lat="43.1344693" lon="-5.2997180">
<ele>1086.02</ele>
<time>2021-03-03T12:19:11.000Z</time>
</trkpt>
<trkpt lat="43.1343043" lon="-5.2996115">
<ele>1084.76</ele>
<time>2021-03-03T12:19:47.000Z</time>
</trkpt>
<trkpt lat="43.1341394" lon="-5.2994988">
<ele>1084.70</ele>
<time>2021-03-03T12:20:05.000Z</time>
</trkpt>
<trkpt lat="43.1339897" lon="-5.2993494">
<ele>1088.90</ele>
<time>2021-03-03T12:20:25.000Z</time>
</trkpt>
<trkpt lat="43.1338163" lon="-5.2992538">
<ele>1089.69</ele>
<time>2021-03-03T12:21:13.000Z</time>
</trkpt>
<trkpt lat="43.1336540" lon="-5.2991360">
<ele>1091.97</ele>
<time>2021-03-03T12:21:46.000Z</time>
</trkpt>
<trkpt lat="43.1335083" lon="-5.2989850">
<ele>1095.90</ele>
<time>2021-03-03T12:22:35.000Z</time>
</trkpt>
<trkpt lat="43.1335475" lon="-5.2987322">
<ele>1098.99</ele>
<time>2021-03-03T12:23:07.000Z</time>
</trkpt>
<trkpt lat="43.1336531" lon="-5.2985185">
<ele>1097.90</ele>
<time>2021-03-03T12:24:13.000Z</time>
</trkpt>
<trkpt lat="43.1337654" lon="-5.2983126">
<ele>1099.08</ele>
<time>2021-03-03T12:24:29.000Z</time>
</trkpt>
<trkpt lat="43.1338460" lon="-5.2980885">
<ele>1099.27</ele>
<time>2021-03-03T12:24:46.000Z</time>
</trkpt>
<trkpt lat="43.1338344" lon="-5.2978399">
<ele>1099.29</ele>
<time>2021-03-03T12:25:21.000Z</time>
</trkpt>
<trkpt lat="43.1337308" lon="-5.2976364">
<ele>1101.00</ele>
<time>2021-03-03T12:25:36.000Z</time>
</trkpt>
<trkpt lat="43.1335891" lon="-5.2974652">
<ele>1099.97</ele>
<time>2021-03-03T12:26:18.000Z</time>
</trkpt>
<trkpt lat="43.1334396" lon="-5.2973231">
<ele>1099.70</ele>
<time>2021-03-03T12:26:33.000Z</time>
</trkpt>
<trkpt lat="43.1332841" lon="-5.2971919">
<ele>1100.00</ele>
<time>2021-03-03T12:26:47.000Z</time>
</trkpt>
<trkpt lat="43.1331302" lon="-5.2970587">
<ele>1099.99</ele>
<time>2021-03-03T12:27:02.000Z</time>
</trkpt>
<trkpt lat="43.1329957" lon="-5.2968869">
<ele>1101.30</ele>
<time>2021-03-03T12:27:26.000Z</time>
</trkpt>
<trkpt lat="43.1328470" lon="-5.2967294">
<ele>1102.00</ele>
<time>2021-03-03T12:27:46.000Z</time>
</trkpt>
<trkpt lat="43.1327088" lon="-5.2965586">
<ele>1104.00</ele>
<time>2021-03-03T12:28:09.000Z</time>
</trkpt>
<trkpt lat="43.1325330" lon="-5.2964686">
<ele>1105.00</ele>
<time>2021-03-03T12:28:29.000Z</time>
</trkpt>
<trkpt lat="43.1323508" lon="-5.2965073">
<ele>1104.78</ele>
<time>2021-03-03T12:29:05.000Z</time>
</trkpt>
<trkpt lat="43.1321719" lon="-5.2965568">
<ele>1105.93</ele>
<time>2021-03-03T12:30:37.000Z</time>
</trkpt>
<trkpt lat="43.1319963" lon="-5.2966402">
<ele>1104.99</ele>
<time>2021-03-03T12:30:58.000Z</time>
</trkpt>
<trkpt lat="43.1318519" lon="-5.2967969">
<ele>1105.97</ele>
<time>2021-03-03T12:31:16.000Z</time>
</trkpt>
<trkpt lat="43.1318373" lon="-5.2970542">
<ele>1108.91</ele>
<time>2021-03-03T12:31:34.000Z</time>
</trkpt>
<trkpt lat="43.1317896" lon="-5.2973025">
<ele>1110.00</ele>
<time>2021-03-03T12:31:50.000Z</time>
</trkpt>
<trkpt lat="43.1316824" lon="-5.2975184">
<ele>1108.70</ele>
<time>2021-03-03T12:32:07.000Z</time>
</trkpt>
<trkpt lat="43.1315267" lon="-5.2976470">
<ele>1106.30</ele>
<time>2021-03-03T12:32:25.000Z</time>
</trkpt>
<trkpt lat="43.1313392" lon="-5.2976867">
<ele>1103.09</ele>
<time>2021-03-03T12:32:44.000Z</time>
</trkpt>
<trkpt lat="43.1311565" lon="-5.2977502">
<ele>1100.00</ele>
<time>2021-03-03T12:33:02.000Z</time>
</trkpt>
<trkpt lat="43.1309703" lon="-5.2978188">
<ele>1098.00</ele>
<time>2021-03-03T12:33:30.000Z</time>
</trkpt>
<trkpt lat="43.1307828" lon="-5.2978847">
<ele>1096.00</ele>
<time>2021-03-03T12:33:47.000Z</time>
</trkpt>
<trkpt lat="43.1306050" lon="-5.2979347">
<ele>1095.09</ele>
<time>2021-03-03T12:34:04.000Z</time>
</trkpt>
<trkpt lat="43.1304235" lon="-5.2979644">
<ele>1092.30</ele>
<time>2021-03-03T12:34:20.000Z</time>
</trkpt>
<trkpt lat="43.1302392" lon="-5.2980494">
<ele>1091.70</ele>
<time>2021-03-03T12:34:37.000Z</time>
</trkpt>
<trkpt lat="43.1300609" lon="-5.2981363">
<ele>1091.91</ele>
<time>2021-03-03T12:34:53.000Z</time>
</trkpt>
<trkpt lat="43.1299275" lon="-5.2983090">
<ele>1089.70</ele>
<time>2021-03-03T12:35:10.000Z</time>
</trkpt>
<trkpt lat="43.1297938" lon="-5.2984764">
<ele>1092.70</ele>
<time>2021-03-03T12:35:28.000Z</time>
</trkpt>
<trkpt lat="43.1297231" lon="-5.2987096">
<ele>1094.00</ele>
<time>2021-03-03T12:35:46.000Z</time>
</trkpt>
<trkpt lat="43.1296586" lon="-5.2989415">
<ele>1098.02</ele>
<time>2021-03-03T12:36:15.000Z</time>
</trkpt>
<trkpt lat="43.1295670" lon="-5.2991582">
<ele>1097.91</ele>
<time>2021-03-03T12:36:35.000Z</time>
</trkpt>
<trkpt lat="43.1294788" lon="-5.2993746">
<ele>1092.03</ele>
<time>2021-03-03T12:36:52.000Z</time>
</trkpt>
<trkpt lat="43.1294332" lon="-5.2996202">
<ele>1091.98</ele>
<time>2021-03-03T12:37:42.000Z</time>
</trkpt>
<trkpt lat="43.1293905" lon="-5.2998648">
<ele>1093.00</ele>
<time>2021-03-03T12:37:59.000Z</time>
</trkpt>
<trkpt lat="43.1292973" lon="-5.3000909">
<ele>1094.01</ele>
<time>2021-03-03T12:38:15.000Z</time>
</trkpt>
<trkpt lat="43.1293075" lon="-5.3003458">
<ele>1095.00</ele>
<time>2021-03-03T12:38:32.000Z</time>
</trkpt>
<trkpt lat="43.1293490" lon="-5.3005933">
<ele>1094.30</ele>
<time>2021-03-03T12:39:37.000Z</time>
</trkpt>
<trkpt lat="43.1292713" lon="-5.3008203">
<ele>1092.30</ele>
<time>2021-03-03T12:39:53.000Z</time>
</trkpt>
<trkpt lat="43.1291048" lon="-5.3009196">
<ele>1091.00</ele>
<time>2021-03-03T12:40:09.000Z</time>
</trkpt>
<trkpt lat="43.1289408" lon="-5.3010252">
<ele>1090.01</ele>
<time>2021-03-03T12:40:25.000Z</time>
</trkpt>
<trkpt lat="43.1287583" lon="-5.3011185">
<ele>1089.01</ele>
<time>2021-03-03T12:40:40.000Z</time>
</trkpt>
<trkpt lat="43.1285689" lon="-5.3011254">
<ele>1088.01</ele>
<time>2021-03-03T12:40:56.000Z</time>
</trkpt>
<trkpt lat="43.1283842" lon="-5.3010904">
<ele>1087.24</ele>
<time>2021-03-03T12:41:11.000Z</time>
</trkpt>
<trkpt lat="43.1281994" lon="-5.3010433">
<ele>1085.71</ele>
<time>2021-03-03T12:41:26.000Z</time>
</trkpt>
<trkpt lat="43.1280181" lon="-5.3010549">
<ele>1085.03</ele>
<time>2021-03-03T12:41:41.000Z</time>
</trkpt>
<trkpt lat="43.1278364" lon="-5.3010668">
<ele>1083.31</ele>
<time>2021-03-03T12:41:57.000Z</time>
</trkpt>
<trkpt lat="43.1276504" lon="-5.3010337">
<ele>1083.01</ele>
<time>2021-03-03T12:42:13.000Z</time>
</trkpt>
<trkpt lat="43.1274672" lon="-5.3010679">
<ele>1080.98</ele>
<time>2021-03-03T12:42:30.000Z</time>
</trkpt>
<trkpt lat="43.1272922" lon="-5.3009977">
<ele>1080.92</ele>
<time>2021-03-03T12:43:06.000Z</time>
</trkpt>
<trkpt lat="43.1271642" lon="-5.3008234">
<ele>1079.01</ele>
<time>2021-03-03T12:43:26.000Z</time>
</trkpt>
<trkpt lat="43.1270392" lon="-5.3006397">
<ele>1075.10</ele>
<time>2021-03-03T12:43:46.000Z</time>
</trkpt>
<trkpt lat="43.1269088" lon="-5.3004624">
<ele>1074.01</ele>
<time>2021-03-03T12:44:05.000Z</time>
</trkpt>
<trkpt lat="43.1267549" lon="-5.3003335">
<ele>1072.07</ele>
<time>2021-03-03T12:44:23.000Z</time>
</trkpt>
<trkpt lat="43.1265997" lon="-5.3001970">
<ele>1068.80</ele>
<time>2021-03-03T12:44:41.000Z</time>
</trkpt>
<trkpt lat="43.1264549" lon="-5.3000458">
<ele>1069.01</ele>
<time>2021-03-03T12:44:57.000Z</time>
</trkpt>
<trkpt lat="43.1262952" lon="-5.2999077">
<ele>1070.92</ele>
<time>2021-03-03T12:45:22.000Z</time>
</trkpt>
<trkpt lat="43.1261413" lon="-5.2997756">
<ele>1069.01</ele>
<time>2021-03-03T12:45:40.000Z</time>
</trkpt>
<trkpt lat="43.1259991" lon="-5.2996220">
<ele>1069.01</ele>
<time>2021-03-03T12:46:00.000Z</time>
</trkpt>
<trkpt lat="43.1258778" lon="-5.2994238">
<ele>1071.01</ele>
<time>2021-03-03T12:46:23.000Z</time>
</trkpt>
<trkpt lat="43.1257324" lon="-5.2992610">
<ele>1073.72</ele>
<time>2021-03-03T12:46:58.000Z</time>
</trkpt>
<trkpt lat="43.1255870" lon="-5.2991082">
<ele>1071.93</ele>
<time>2021-03-03T12:47:19.000Z</time>
</trkpt>
<trkpt lat="43.1254556" lon="-5.2989394">
<ele>1072.02</ele>
<time>2021-03-03T12:47:37.000Z</time>
</trkpt>
<trkpt lat="43.1253206" lon="-5.2987632">
<ele>1075.02</ele>
<time>2021-03-03T12:47:54.000Z</time>
</trkpt>
<trkpt lat="43.1252208" lon="-5.2985431">
<ele>1079.01</ele>
<time>2021-03-03T12:48:16.000Z</time>
</trkpt>
<trkpt lat="43.1251338" lon="-5.2983263">
<ele>1083.00</ele>
<time>2021-03-03T12:48:36.000Z</time>
</trkpt>
<trkpt lat="43.1250160" lon="-5.2981354">
<ele>1083.01</ele>
<time>2021-03-03T12:48:54.000Z</time>
</trkpt>
<trkpt lat="43.1248552" lon="-5.2980176">
<ele>1084.93</ele>
<time>2021-03-03T12:49:15.000Z</time>
</trkpt>
<trkpt lat="43.1246769" lon="-5.2979547">
<ele>1087.02</ele>
<time>2021-03-03T12:49:36.000Z</time>
</trkpt>
<trkpt lat="43.1244968" lon="-5.2978749">
<ele>1088.05</ele>
<time>2021-03-03T12:51:17.000Z</time>
</trkpt>
<trkpt lat="43.1243213" lon="-5.2977916">
<ele>1090.02</ele>
<time>2021-03-03T12:51:38.000Z</time>
</trkpt>
<trkpt lat="43.1241639" lon="-5.2976544">
<ele>1090.99</ele>
<time>2021-03-03T12:51:56.000Z</time>
</trkpt>
<trkpt lat="43.1240041" lon="-5.2975177">
<ele>1091.93</ele>
<time>2021-03-03T12:52:23.000Z</time>
</trkpt>
<trkpt lat="43.1238205" lon="-5.2974726">
<ele>1090.75</ele>
<time>2021-03-03T12:52:43.000Z</time>
</trkpt>
<trkpt lat="43.1236485" lon="-5.2975625">
<ele>1089.00</ele>
<time>2021-03-03T12:53:03.000Z</time>
</trkpt>
<trkpt lat="43.1235096" lon="-5.2977345">
<ele>1091.01</ele>
<time>2021-03-03T12:53:22.000Z</time>
</trkpt>
<trkpt lat="43.1233870" lon="-5.2979225">
<ele>1093.02</ele>
<time>2021-03-03T12:53:39.000Z</time>
</trkpt>
<trkpt lat="43.1232825" lon="-5.2981395">
<ele>1092.02</ele>
<time>2021-03-03T12:53:59.000Z</time>
</trkpt>
<trkpt lat="43.1231918" lon="-5.2983690">
<ele>1092.93</ele>
<time>2021-03-03T12:54:17.000Z</time>
</trkpt>
<trkpt lat="43.1231197" lon="-5.2985953">
<ele>1092.32</ele>
<time>2021-03-03T12:54:34.000Z</time>
</trkpt>
<trkpt lat="43.1230020" lon="-5.2987827">
<ele>1090.01</ele>
<time>2021-03-03T12:55:40.000Z</time>
</trkpt>
<trkpt lat="43.1229263" lon="-5.2990153">
<ele>1086.03</ele>
<time>2021-03-03T12:55:59.000Z</time>
</trkpt>
<trkpt lat="43.1228546" lon="-5.2992575">
<ele>1085.11</ele>
<time>2021-03-03T12:56:22.000Z</time>
</trkpt>
<trkpt lat="43.1227582" lon="-5.2994723">
<ele>1084.00</ele>
<time>2021-03-03T12:56:42.000Z</time>
</trkpt>
<trkpt lat="43.1226982" lon="-5.2997053">
<ele>1084.02</ele>
<time>2021-03-03T12:57:03.000Z</time>
</trkpt>
<trkpt lat="43.1227613" lon="-5.2999377">
<ele>1085.02</ele>
<time>2021-03-03T12:57:22.000Z</time>
</trkpt>
<trkpt lat="43.1229134" lon="-5.3000867">
<ele>1084.72</ele>
<time>2021-03-03T12:57:37.000Z</time>
</trkpt>
<trkpt lat="43.1230445" lon="-5.3002593">
<ele>1083.32</ele>
<time>2021-03-03T12:57:54.000Z</time>
</trkpt>
<trkpt lat="43.1231735" lon="-5.3004366">
<ele>1083.72</ele>
<time>2021-03-03T12:58:11.000Z</time>
</trkpt>
<trkpt lat="43.1232686" lon="-5.3006612">
<ele>1083.02</ele>
<time>2021-03-03T12:58:28.000Z</time>
</trkpt>
<trkpt lat="43.1233579" lon="-5.3008862">
<ele>1081.02</ele>
<time>2021-03-03T12:58:45.000Z</time>
</trkpt>
<trkpt lat="43.1234171" lon="-5.3011201">
<ele>1081.02</ele>
<time>2021-03-03T12:59:00.000Z</time>
</trkpt>
<trkpt lat="43.1234303" lon="-5.3013774">
<ele>1080.99</ele>
<time>2021-03-03T12:59:16.000Z</time>
</trkpt>
<trkpt lat="43.1235101" lon="-5.3016014">
<ele>1081.74</ele>
<time>2021-03-03T12:59:32.000Z</time>
</trkpt>
<trkpt lat="43.1235929" lon="-5.3018270">
<ele>1081.02</ele>
<time>2021-03-03T12:59:50.000Z</time>
</trkpt>
<trkpt lat="43.1236824" lon="-5.3020454">
<ele>1082.72</ele>
<time>2021-03-03T13:00:09.000Z</time>
</trkpt>
<trkpt lat="43.1237922" lon="-5.3022531">
<ele>1085.31</ele>
<time>2021-03-03T13:00:24.000Z</time>
</trkpt>
<trkpt lat="43.1237097" lon="-5.3024885">
<ele>1083.02</ele>
<time>2021-03-03T13:00:41.000Z</time>
</trkpt>
<trkpt lat="43.1236420" lon="-5.3027218">
<ele>1080.02</ele>
<time>2021-03-03T13:01:37.000Z</time>
</trkpt>
<trkpt lat="43.1235477" lon="-5.3029323">
<ele>1080.02</ele>
<time>2021-03-03T13:01:51.000Z</time>
</trkpt>
<trkpt lat="43.1234512" lon="-5.3031420">
<ele>1079.72</ele>
<time>2021-03-03T13:02:04.000Z</time>
</trkpt>
<trkpt lat="43.1234877" lon="-5.3033878">
<ele>1080.93</ele>
<time>2021-03-03T13:02:18.000Z</time>
</trkpt>
<trkpt lat="43.1235634" lon="-5.3036158">
<ele>1083.93</ele>
<time>2021-03-03T13:02:36.000Z</time>
</trkpt>
<trkpt lat="43.1237367" lon="-5.3037224">
<ele>1088.01</ele>
<time>2021-03-03T13:02:52.000Z</time>
</trkpt>
<trkpt lat="43.1238989" lon="-5.3038584">
<ele>1092.92</ele>
<time>2021-03-03T13:03:15.000Z</time>
</trkpt>
<trkpt lat="43.1240080" lon="-5.3040608">
<ele>1095.00</ele>
<time>2021-03-03T13:04:25.000Z</time>
</trkpt>
<trkpt lat="43.1240880" lon="-5.3042910">
<ele>1097.02</ele>
<time>2021-03-03T13:05:23.000Z</time>
</trkpt>
<trkpt lat="43.1241700" lon="-5.3045158">
<ele>1099.02</ele>
<time>2021-03-03T13:05:47.000Z</time>
</trkpt>
<trkpt lat="43.1242437" lon="-5.3047506">
<ele>1102.02</ele>
<time>2021-03-03T13:06:11.000Z</time>
</trkpt>
<trkpt lat="43.1243428" lon="-5.3049679">
<ele>1105.99</ele>
<time>2021-03-03T13:06:39.000Z</time>
</trkpt>
<trkpt lat="43.1244420" lon="-5.3051750">
<ele>1106.01</ele>
<time>2021-03-03T13:06:59.000Z</time>
</trkpt>
<trkpt lat="43.1245290" lon="-5.3053960">
<ele>1106.72</ele>
<time>2021-03-03T13:07:23.000Z</time>
</trkpt>
<trkpt lat="43.1245833" lon="-5.3056420">
<ele>1110.01</ele>
<time>2021-03-03T13:07:49.000Z</time>
</trkpt>
<trkpt lat="43.1246551" lon="-5.3058699">
<ele>1114.99</ele>
<time>2021-03-03T13:08:21.000Z</time>
</trkpt>
<trkpt lat="43.1246747" lon="-5.3061201">
<ele>1119.01</ele>
<time>2021-03-03T13:11:29.000Z</time>
</trkpt>
<trkpt lat="43.1245407" lon="-5.3062911">
<ele>1121.01</ele>
<time>2021-03-03T13:12:13.000Z</time>
</trkpt>
<trkpt lat="43.1243585" lon="-5.3063243">
<ele>1122.25</ele>
<time>2021-03-03T13:12:47.000Z</time>
</trkpt>
<trkpt lat="43.1241752" lon="-5.3063495">
<ele>1124.02</ele>
<time>2021-03-03T13:13:14.000Z</time>
</trkpt>
<trkpt lat="43.1239965" lon="-5.3064032">
<ele>1129.71</ele>
<time>2021-03-03T13:13:49.000Z</time>
</trkpt>
<trkpt lat="43.1238200" lon="-5.3064738">
<ele>1129.02</ele>
<time>2021-03-03T13:14:21.000Z</time>
</trkpt>
<trkpt lat="43.1236624" lon="-5.3066137">
<ele>1132.01</ele>
<time>2021-03-03T13:14:54.000Z</time>
</trkpt>
<trkpt lat="43.1235281" lon="-5.3067826">
<ele>1136.99</ele>
<time>2021-03-03T13:15:20.000Z</time>
</trkpt>
<trkpt lat="43.1234285" lon="-5.3069880">
<ele>1138.01</ele>
<time>2021-03-03T13:15:42.000Z</time>
</trkpt>
<trkpt lat="43.1233300" lon="-5.3072001">
<ele>1141.72</ele>
<time>2021-03-03T13:16:23.000Z</time>
</trkpt>
<trkpt lat="43.1233341" lon="-5.3074564">
<ele>1145.69</ele>
<time>2021-03-03T13:16:53.000Z</time>
</trkpt>
<trkpt lat="43.1233122" lon="-5.3077042">
<ele>1151.09</ele>
<time>2021-03-03T13:17:21.000Z</time>
</trkpt>
<trkpt lat="43.1232421" lon="-5.3079383">
<ele>1152.93</ele>
<time>2021-03-03T13:17:54.000Z</time>
</trkpt>
<trkpt lat="43.1230711" lon="-5.3080395">
<ele>1153.31</ele>
<time>2021-03-03T13:18:46.000Z</time>
</trkpt>
<trkpt lat="43.1228955" lon="-5.3081143">
<ele>1152.01</ele>
<time>2021-03-03T13:19:13.000Z</time>
</trkpt>
<trkpt lat="43.1227262" lon="-5.3082205">
<ele>1151.02</ele>
<time>2021-03-03T13:19:31.000Z</time>
</trkpt>
<trkpt lat="43.1225837" lon="-5.3083901">
<ele>1151.02</ele>
<time>2021-03-03T13:19:49.000Z</time>
</trkpt>
<trkpt lat="43.1224978" lon="-5.3086242">
<ele>1155.02</ele>
<time>2021-03-03T13:20:20.000Z</time>
</trkpt>
<trkpt lat="43.1223852" lon="-5.3088225">
<ele>1157.02</ele>
<time>2021-03-03T13:20:43.000Z</time>
</trkpt>
<trkpt lat="43.1222876" lon="-5.3090401">
<ele>1156.04</ele>
<time>2021-03-03T13:21:02.000Z</time>
</trkpt>
<trkpt lat="43.1221538" lon="-5.3092119">
<ele>1157.02</ele>
<time>2021-03-03T13:21:22.000Z</time>
</trkpt>
<trkpt lat="43.1220196" lon="-5.3093915">
<ele>1158.02</ele>
<time>2021-03-03T13:21:40.000Z</time>
</trkpt>
<trkpt lat="43.1218899" lon="-5.3095735">
<ele>1161.02</ele>
<time>2021-03-03T13:22:10.000Z</time>
</trkpt>
<trkpt lat="43.1217452" lon="-5.3097336">
<ele>1160.32</ele>
<time>2021-03-03T13:22:31.000Z</time>
</trkpt>
<trkpt lat="43.1215754" lon="-5.3096507">
<ele>1163.02</ele>
<time>2021-03-03T13:23:13.000Z</time>
</trkpt>
<trkpt lat="43.1214151" lon="-5.3095155">
<ele>1164.02</ele>
<time>2021-03-03T13:23:31.000Z</time>
</trkpt>
<trkpt lat="43.1212456" lon="-5.3093979">
<ele>1163.11</ele>
<time>2021-03-03T13:23:52.000Z</time>
</trkpt>
<trkpt lat="43.1210643" lon="-5.3093565">
<ele>1163.02</ele>
<time>2021-03-03T13:24:10.000Z</time>
</trkpt>
<trkpt lat="43.1208754" lon="-5.3093886">
<ele>1160.81</ele>
<time>2021-03-03T13:24:54.000Z</time>
</trkpt>
<trkpt lat="43.1207026" lon="-5.3094670">
<ele>1159.03</ele>
<time>2021-03-03T13:25:13.000Z</time>
</trkpt>
<trkpt lat="43.1205411" lon="-5.3093373">
<ele>1158.02</ele>
<time>2021-03-03T13:25:32.000Z</time>
</trkpt>
<trkpt lat="43.1204119" lon="-5.3091649">
<ele>1157.03</ele>
<time>2021-03-03T13:25:53.000Z</time>
</trkpt>
<trkpt lat="43.1202700" lon="-5.3090069">
<ele>1154.32</ele>
<time>2021-03-03T13:26:13.000Z</time>
</trkpt>
<trkpt lat="43.1200971" lon="-5.3089132">
<ele>1154.05</ele>
<time>2021-03-03T13:26:31.000Z</time>
</trkpt>
<trkpt lat="43.1199121" lon="-5.3089092">
<ele>1152.32</ele>
<time>2021-03-03T13:26:51.000Z</time>
</trkpt>
<trkpt lat="43.1197280" lon="-5.3089093">
<ele>1153.05</ele>
<time>2021-03-03T13:27:11.000Z</time>
</trkpt>
<trkpt lat="43.1195453" lon="-5.3089157">
<ele>1149.32</ele>
<time>2021-03-03T13:27:31.000Z</time>
</trkpt>
<trkpt lat="43.1193658" lon="-5.3089685">
<ele>1145.03</ele>
<time>2021-03-03T13:27:51.000Z</time>
</trkpt>
<trkpt lat="43.1191876" lon="-5.3090638">
<ele>1142.96</ele>
<time>2021-03-03T13:28:10.000Z</time>
</trkpt>
<trkpt lat="43.1190144" lon="-5.3089826">
<ele>1142.00</ele>
<time>2021-03-03T13:28:28.000Z</time>
</trkpt>
<trkpt lat="43.1188355" lon="-5.3089060">
<ele>1141.03</ele>
<time>2021-03-03T13:28:50.000Z</time>
</trkpt>
<trkpt lat="43.1186583" lon="-5.3088619">
<ele>1141.03</ele>
<time>2021-03-03T13:29:12.000Z</time>
</trkpt>
<trkpt lat="43.1184851" lon="-5.3089456">
<ele>1141.73</ele>
<time>2021-03-03T13:30:09.000Z</time>
</trkpt>
<trkpt lat="43.1183733" lon="-5.3091389">
<ele>1145.73</ele>
<time>2021-03-03T13:31:20.000Z</time>
</trkpt>
<trkpt lat="43.1183910" lon="-5.3093959">
<ele>1146.03</ele>
<time>2021-03-03T13:32:07.000Z</time>
</trkpt>
<trkpt lat="43.1183208" lon="-5.3096285">
<ele>1145.00</ele>
<time>2021-03-03T13:32:45.000Z</time>
</trkpt>
<trkpt lat="43.1181422" lon="-5.3096705">
<ele>1142.95</ele>
<time>2021-03-03T13:33:07.000Z</time>
</trkpt>
<trkpt lat="43.1180136" lon="-5.3098504">
<ele>1144.05</ele>
<time>2021-03-03T13:33:34.000Z</time>
</trkpt>
<trkpt lat="43.1179315" lon="-5.3100793">
<ele>1144.00</ele>
<time>2021-03-03T13:33:53.000Z</time>
</trkpt>
<trkpt lat="43.1178641" lon="-5.3103159">
<ele>1145.03</ele>
<time>2021-03-03T13:34:11.000Z</time>
</trkpt>
<trkpt lat="43.1178378" lon="-5.3105666">
<ele>1145.73</ele>
<time>2021-03-03T13:34:30.000Z</time>
</trkpt>
<trkpt lat="43.1178727" lon="-5.3108267">
<ele>1147.05</ele>
<time>2021-03-03T13:34:51.000Z</time>
</trkpt>
<trkpt lat="43.1179182" lon="-5.3110654">
<ele>1147.03</ele>
<time>2021-03-03T13:35:08.000Z</time>
</trkpt>
<trkpt lat="43.1179687" lon="-5.3113162">
<ele>1150.02</ele>
<time>2021-03-03T13:35:26.000Z</time>
</trkpt>
<trkpt lat="43.1179326" lon="-5.3115667">
<ele>1150.03</ele>
<time>2021-03-03T13:35:43.000Z</time>
</trkpt>
<trkpt lat="43.1178592" lon="-5.3117990">
<ele>1151.85</ele>
<time>2021-03-03T13:36:04.000Z</time>
</trkpt>
<trkpt lat="43.1177547" lon="-5.3120085">
<ele>1150.33</ele>
<time>2021-03-03T13:36:19.000Z</time>
</trkpt>
<trkpt lat="43.1178392" lon="-5.3122274">
<ele>1149.72</ele>
<time>2021-03-03T13:36:33.000Z</time>
</trkpt>
<trkpt lat="43.1179198" lon="-5.3124566">
<ele>1151.30</ele>
<time>2021-03-03T13:36:48.000Z</time>
</trkpt>
<trkpt lat="43.1179912" lon="-5.3126893">
<ele>1151.03</ele>
<time>2021-03-03T13:37:05.000Z</time>
</trkpt>
<trkpt lat="43.1180773" lon="-5.3129066">
<ele>1152.73</ele>
<time>2021-03-03T13:37:23.000Z</time>
</trkpt>
<trkpt lat="43.1181360" lon="-5.3131443">
<ele>1155.72</ele>
<time>2021-03-03T13:37:41.000Z</time>
</trkpt>
<trkpt lat="43.1181872" lon="-5.3133914">
<ele>1157.02</ele>
<time>2021-03-03T13:37:57.000Z</time>
</trkpt>
<trkpt lat="43.1182322" lon="-5.3136479">
<ele>1158.02</ele>
<time>2021-03-03T13:38:16.000Z</time>
</trkpt>
<trkpt lat="43.1182336" lon="-5.3139018">
<ele>1158.11</ele>
<time>2021-03-03T13:38:49.000Z</time>
</trkpt>
<trkpt lat="43.1182834" lon="-5.3141432">
<ele>1157.00</ele>
<time>2021-03-03T13:39:07.000Z</time>
</trkpt>
<trkpt lat="43.1181908" lon="-5.3143554">
<ele>1158.81</ele>
<time>2021-03-03T13:40:06.000Z</time>
</trkpt>
<trkpt lat="43.1180318" lon="-5.3144741">
<ele>1160.03</ele>
<time>2021-03-03T13:40:51.000Z</time>
</trkpt>
<trkpt lat="43.1178692" lon="-5.3146017">
<ele>1158.05</ele>
<time>2021-03-03T13:41:12.000Z</time>
</trkpt>
<trkpt lat="43.1177359" lon="-5.3147870">
<ele>1156.23</ele>
<time>2021-03-03T13:41:38.000Z</time>
</trkpt>
<trkpt lat="43.1176533" lon="-5.3150205">
<ele>1156.02</ele>
<time>2021-03-03T13:42:09.000Z</time>
</trkpt>
<trkpt lat="43.1176620" lon="-5.3152728">
<ele>1155.94</ele>
<time>2021-03-03T13:42:42.000Z</time>
</trkpt>
<trkpt lat="43.1176277" lon="-5.3155302">
<ele>1154.03</ele>
<time>2021-03-03T13:43:02.000Z</time>
</trkpt>
<trkpt lat="43.1176531" lon="-5.3157788">
<ele>1154.02</ele>
<time>2021-03-03T13:43:18.000Z</time>
</trkpt>
<trkpt lat="43.1176820" lon="-5.3160295">
<ele>1156.03</ele>
<time>2021-03-03T13:43:53.000Z</time>
</trkpt>
<trkpt lat="43.1177390" lon="-5.3162760">
<ele>1157.03</ele>
<time>2021-03-03T13:44:13.000Z</time>
</trkpt>
<trkpt lat="43.1177800" lon="-5.3165201">
<ele>1157.81</ele>
<time>2021-03-03T13:44:33.000Z</time>
</trkpt>
<trkpt lat="43.1177773" lon="-5.3167767">
<ele>1159.09</ele>
<time>2021-03-03T13:44:53.000Z</time>
</trkpt>
<trkpt lat="43.1177439" lon="-5.3170365">
<ele>1159.02</ele>
<time>2021-03-03T13:45:10.000Z</time>
</trkpt>
<trkpt lat="43.1176632" lon="-5.3172572">
<ele>1157.32</ele>
<time>2021-03-03T13:45:27.000Z</time>
</trkpt>
<trkpt lat="43.1176285" lon="-5.3175021">
<ele>1156.03</ele>
<time>2021-03-03T13:45:42.000Z</time>
</trkpt>
<trkpt lat="43.1175307" lon="-5.3177176">
<ele>1156.11</ele>
<time>2021-03-03T13:45:59.000Z</time>
</trkpt>
<trkpt lat="43.1174280" lon="-5.3179242">
<ele>1157.02</ele>
<time>2021-03-03T13:46:16.000Z</time>
</trkpt>
<trkpt lat="43.1173323" lon="-5.3181329">
<ele>1157.02</ele>
<time>2021-03-03T13:46:33.000Z</time>
</trkpt>
<trkpt lat="43.1172202" lon="-5.3183337">
<ele>1154.81</ele>
<time>2021-03-03T13:46:51.000Z</time>
</trkpt>
<trkpt lat="43.1171236" lon="-5.3185509">
<ele>1154.05</ele>
<time>2021-03-03T13:47:09.000Z</time>
</trkpt>
<trkpt lat="43.1170504" lon="-5.3187823">
<ele>1154.02</ele>
<time>2021-03-03T13:47:25.000Z</time>
</trkpt>
<trkpt lat="43.1169723" lon="-5.3190147">
<ele>1151.33</ele>
<time>2021-03-03T13:47:41.000Z</time>
</trkpt>
<trkpt lat="43.1167990" lon="-5.3190806">
<ele>1150.32</ele>
<time>2021-03-03T13:47:58.000Z</time>
</trkpt>
<trkpt lat="43.1166237" lon="-5.3189863">
<ele>1153.02</ele>
<time>2021-03-03T13:48:16.000Z</time>
</trkpt>
<trkpt lat="43.1164604" lon="-5.3188657">
<ele>1148.05</ele>
<time>2021-03-03T13:48:34.000Z</time>
</trkpt>
<trkpt lat="43.1162721" lon="-5.3188571">
<ele>1143.33</ele>
<time>2021-03-03T13:48:52.000Z</time>
</trkpt>
<trkpt lat="43.1160865" lon="-5.3189193">
<ele>1141.76</ele>
<time>2021-03-03T13:49:11.000Z</time>
</trkpt>
<trkpt lat="43.1159204" lon="-5.3190147">
<ele>1145.03</ele>
<time>2021-03-03T13:50:18.000Z</time>
</trkpt>
<trkpt lat="43.1157602" lon="-5.3191434">
<ele>1147.12</ele>
<time>2021-03-03T13:50:57.000Z</time>
</trkpt>
<trkpt lat="43.1156333" lon="-5.3193358">
<ele>1149.00</ele>
<time>2021-03-03T13:51:20.000Z</time>
</trkpt>
<trkpt lat="43.1155997" lon="-5.3195813">
<ele>1148.00</ele>
<time>2021-03-03T13:52:04.000Z</time>
</trkpt>
<trkpt lat="43.1154597" lon="-5.3194192">
<ele>1152.03</ele>
<time>2021-03-03T13:53:46.000Z</time>
</trkpt>
<trkpt lat="43.1154322" lon="-5.3191641">
<ele>1154.03</ele>
<time>2021-03-03T13:54:03.000Z</time>
</trkpt>
<trkpt lat="43.1153722" lon="-5.3189156">
<ele>1154.03</ele>
<time>2021-03-03T13:54:22.000Z</time>
</trkpt>
<trkpt lat="43.1151992" lon="-5.3188341">
<ele>1154.02</ele>
<time>2021-03-03T13:55:02.000Z</time>
</trkpt>
<trkpt lat="43.1150338" lon="-5.3187209">
<ele>1155.94</ele>
<time>2021-03-03T13:55:17.000Z</time>
</trkpt>
<trkpt lat="43.1149137" lon="-5.3185132">
<ele>1156.74</ele>
<time>2021-03-03T13:55:33.000Z</time>
</trkpt>
<trkpt lat="43.1148622" lon="-5.3182726">
<ele>1164.94</ele>
<time>2021-03-03T13:56:38.000Z</time>
</trkpt>
<trkpt lat="43.1148397" lon="-5.3180270">
<ele>1167.03</ele>
<time>2021-03-03T13:56:52.000Z</time>
</trkpt>
<trkpt lat="43.1147518" lon="-5.3177924">
<ele>1166.03</ele>
<time>2021-03-03T13:57:08.000Z</time>
</trkpt>
<trkpt lat="43.1146233" lon="-5.3176050">
<ele>1170.94</ele>
<time>2021-03-03T14:02:09.000Z</time>
</trkpt>
<trkpt lat="43.1145588" lon="-5.3173667">
<ele>1171.00</ele>
<time>2021-03-03T14:02:28.000Z</time>
</trkpt>
<trkpt lat="43.1144737" lon="-5.3171326">
<ele>1170.97</ele>
<time>2021-03-03T14:02:45.000Z</time>
</trkpt>
<trkpt lat="43.1143982" lon="-5.3169062">
<ele>1170.03</ele>
<time>2021-03-03T14:03:02.000Z</time>
</trkpt>
<trkpt lat="43.1143193" lon="-5.3166710">
<ele>1170.03</ele>
<time>2021-03-03T14:03:19.000Z</time>
</trkpt>
<trkpt lat="43.1142482" lon="-5.3164291">
<ele>1169.11</ele>
<time>2021-03-03T14:03:35.000Z</time>
</trkpt>
<trkpt lat="43.1141694" lon="-5.3161917">
<ele>1170.03</ele>
<time>2021-03-03T14:03:51.000Z</time>
</trkpt>
<trkpt lat="43.1140841" lon="-5.3159730">
<ele>1169.04</ele>
<time>2021-03-03T14:04:06.000Z</time>
</trkpt>
<trkpt lat="43.1140005" lon="-5.3157526">
<ele>1170.03</ele>
<time>2021-03-03T14:04:22.000Z</time>
</trkpt>
<trkpt lat="43.1138869" lon="-5.3155613">
<ele>1168.04</ele>
<time>2021-03-03T14:04:37.000Z</time>
</trkpt>
<trkpt lat="43.1137544" lon="-5.3153727">
<ele>1167.04</ele>
<time>2021-03-03T14:04:52.000Z</time>
</trkpt>
<trkpt lat="43.1136360" lon="-5.3151853">
<ele>1166.04</ele>
<time>2021-03-03T14:05:08.000Z</time>
</trkpt>
<trkpt lat="43.1135315" lon="-5.3149715">
<ele>1166.04</ele>
<time>2021-03-03T14:05:24.000Z</time>
</trkpt>
<trkpt lat="43.1134152" lon="-5.3147747">
<ele>1166.04</ele>
<time>2021-03-03T14:05:59.000Z</time>
</trkpt>
<trkpt lat="43.1133066" lon="-5.3145712">
<ele>1164.33</ele>
<time>2021-03-03T14:06:14.000Z</time>
</trkpt>
<trkpt lat="43.1132178" lon="-5.3143471">
<ele>1167.04</ele>
<time>2021-03-03T14:06:37.000Z</time>
</trkpt>
<trkpt lat="43.1131421" lon="-5.3141106">
<ele>1169.04</ele>
<time>2021-03-03T14:06:53.000Z</time>
</trkpt>
<trkpt lat="43.1130609" lon="-5.3138762">
<ele>1170.04</ele>
<time>2021-03-03T14:07:07.000Z</time>
</trkpt>
<trkpt lat="43.1129888" lon="-5.3136412">
<ele>1170.04</ele>
<time>2021-03-03T14:07:22.000Z</time>
</trkpt>
<trkpt lat="43.1129044" lon="-5.3134112">
<ele>1168.07</ele>
<time>2021-03-03T14:07:38.000Z</time>
</trkpt>
<trkpt lat="43.1128421" lon="-5.3131562">
<ele>1168.04</ele>
<time>2021-03-03T14:07:54.000Z</time>
</trkpt>
<trkpt lat="43.1127665" lon="-5.3129160">
<ele>1169.04</ele>
<time>2021-03-03T14:08:10.000Z</time>
</trkpt>
<trkpt lat="43.1126853" lon="-5.3126866">
<ele>1167.04</ele>
<time>2021-03-03T14:08:25.000Z</time>
</trkpt>
<trkpt lat="43.1125980" lon="-5.3124623">
<ele>1166.25</ele>
<time>2021-03-03T14:08:40.000Z</time>
</trkpt>
<trkpt lat="43.1125238" lon="-5.3122232">
<ele>1166.04</ele>
<time>2021-03-03T14:08:55.000Z</time>
</trkpt>
<trkpt lat="43.1124235" lon="-5.3120012">
<ele>1166.34</ele>
<time>2021-03-03T14:09:10.000Z</time>
</trkpt>
<trkpt lat="43.1123120" lon="-5.3118044">
<ele>1166.04</ele>
<time>2021-03-03T14:09:25.000Z</time>
</trkpt>
<trkpt lat="43.1122027" lon="-5.3116068">
<ele>1166.04</ele>
<time>2021-03-03T14:09:40.000Z</time>
</trkpt>
<trkpt lat="43.1120748" lon="-5.3114122">
<ele>1166.04</ele>
<time>2021-03-03T14:09:56.000Z</time>
</trkpt>
<trkpt lat="43.1119488" lon="-5.3112252">
<ele>1166.34</ele>
<time>2021-03-03T14:10:11.000Z</time>
</trkpt>
<trkpt lat="43.1118146" lon="-5.3110521">
<ele>1167.96</ele>
<time>2021-03-03T14:10:27.000Z</time>
</trkpt>
<trkpt lat="43.1116593" lon="-5.3109008">
<ele>1167.05</ele>
<time>2021-03-03T14:10:44.000Z</time>
</trkpt>
<trkpt lat="43.1115045" lon="-5.3107720">
<ele>1166.97</ele>
<time>2021-03-03T14:10:58.000Z</time>
</trkpt>
<trkpt lat="43.1113630" lon="-5.3106146">
<ele>1168.05</ele>
<time>2021-03-03T14:11:16.000Z</time>
</trkpt>
<trkpt lat="43.1111934" lon="-5.3105022">
<ele>1166.37</ele>
<time>2021-03-03T14:11:35.000Z</time>
</trkpt>
<trkpt lat="43.1110882" lon="-5.3107137">
<ele>1168.04</ele>
<time>2021-03-03T14:11:52.000Z</time>
</trkpt>
<trkpt lat="43.1109124" lon="-5.3107997">
<ele>1169.04</ele>
<time>2021-03-03T14:12:11.000Z</time>
</trkpt>
<trkpt lat="43.1107320" lon="-5.3107129">
<ele>1168.35</ele>
<time>2021-03-03T14:12:41.000Z</time>
</trkpt>
<trkpt lat="43.1105521" lon="-5.3106732">
<ele>1170.04</ele>
<time>2021-03-03T14:12:57.000Z</time>
</trkpt>
<trkpt lat="43.1103776" lon="-5.3105914">
<ele>1171.05</ele>
<time>2021-03-03T14:13:12.000Z</time>
</trkpt>
<trkpt lat="43.1102337" lon="-5.3104330">
<ele>1172.05</ele>
<time>2021-03-03T14:13:30.000Z</time>
</trkpt>
<trkpt lat="43.1100509" lon="-5.3103916">
<ele>1172.05</ele>
<time>2021-03-03T14:13:46.000Z</time>
</trkpt>
<trkpt lat="43.1098784" lon="-5.3104816">
<ele>1171.05</ele>
<time>2021-03-03T14:14:02.000Z</time>
</trkpt>
<trkpt lat="43.1096922" lon="-5.3105027">
<ele>1174.75</ele>
<time>2021-03-03T14:14:20.000Z</time>
</trkpt>
<trkpt lat="43.1095014" lon="-5.3104978">
<ele>1177.05</ele>
<time>2021-03-03T14:14:39.000Z</time>
</trkpt>
<trkpt lat="43.1093186" lon="-5.3105112">
<ele>1176.05</ele>
<time>2021-03-03T14:14:57.000Z</time>
</trkpt>
<trkpt lat="43.1091331" lon="-5.3105271">
<ele>1179.96</ele>
<time>2021-03-03T14:15:14.000Z</time>
</trkpt>
<trkpt lat="43.1089612" lon="-5.3104500">
<ele>1183.05</ele>
<time>2021-03-03T14:15:35.000Z</time>
</trkpt>
<trkpt lat="43.1087892" lon="-5.3103563">
<ele>1185.03</ele>
<time>2021-03-03T14:15:53.000Z</time>
</trkpt>
<trkpt lat="43.1086435" lon="-5.3102109">
<ele>1187.82</ele>
<time>2021-03-03T14:16:11.000Z</time>
</trkpt>
<trkpt lat="43.1084682" lon="-5.3100981">
<ele>1193.12</ele>
<time>2021-03-03T14:16:48.000Z</time>
</trkpt>
<trkpt lat="43.1083205" lon="-5.3099452">
<ele>1202.05</ele>
<time>2021-03-03T14:17:35.000Z</time>
</trkpt>
<trkpt lat="43.1081642" lon="-5.3098171">
<ele>1205.07</ele>
<time>2021-03-03T14:17:53.000Z</time>
</trkpt>
<trkpt lat="43.1080151" lon="-5.3096793">
<ele>1201.06</ele>
<time>2021-03-03T14:18:23.000Z</time>
</trkpt>
<trkpt lat="43.1078815" lon="-5.3095068">
<ele>1198.36</ele>
<time>2021-03-03T14:18:41.000Z</time>
</trkpt>
<trkpt lat="43.1077664" lon="-5.3093031">
<ele>1202.06</ele>
<time>2021-03-03T14:19:16.000Z</time>
</trkpt>
<trkpt lat="43.1076829" lon="-5.3090794">
<ele>1202.97</ele>
<time>2021-03-03T14:19:32.000Z</time>
</trkpt>
<trkpt lat="43.1076422" lon="-5.3088323">
<ele>1201.15</ele>
<time>2021-03-03T14:19:49.000Z</time>
</trkpt>
<trkpt lat="43.1076471" lon="-5.3085790">
<ele>1200.06</ele>
<time>2021-03-03T14:20:05.000Z</time>
</trkpt>
<trkpt lat="43.1076289" lon="-5.3083229">
<ele>1198.06</ele>
<time>2021-03-03T14:20:21.000Z</time>
</trkpt>
<trkpt lat="43.1075567" lon="-5.3080817">
<ele>1196.06</ele>
<time>2021-03-03T14:20:37.000Z</time>
</trkpt>
<trkpt lat="43.1074974" lon="-5.3078448">
<ele>1199.05</ele>
<time>2021-03-03T14:20:52.000Z</time>
</trkpt>
<trkpt lat="43.1074488" lon="-5.3075914">
<ele>1201.06</ele>
<time>2021-03-03T14:21:08.000Z</time>
</trkpt>
<trkpt lat="43.1073712" lon="-5.3073602">
<ele>1199.09</ele>
<time>2021-03-03T14:21:24.000Z</time>
</trkpt>
<trkpt lat="43.1072304" lon="-5.3072041">
<ele>1200.76</ele>
<time>2021-03-03T14:21:57.000Z</time>
</trkpt>
<trkpt lat="43.1071092" lon="-5.3070117">
<ele>1205.03</ele>
<time>2021-03-03T14:22:38.000Z</time>
</trkpt>
<trkpt lat="43.1070633" lon="-5.3067722">
<ele>1205.03</ele>
<time>2021-03-03T14:23:18.000Z</time>
</trkpt>
<trkpt lat="43.1069055" lon="-5.3068963">
<ele>1202.78</ele>
<time>2021-03-03T14:25:51.000Z</time>
</trkpt>
<trkpt lat="43.1067289" lon="-5.3069603">
<ele>1202.06</ele>
<time>2021-03-03T14:26:08.000Z</time>
</trkpt>
<trkpt lat="43.1065471" lon="-5.3069924">
<ele>1194.15</ele>
<time>2021-03-03T14:26:50.000Z</time>
</trkpt>
<trkpt lat="43.1063630" lon="-5.3070339">
<ele>1194.97</ele>
<time>2021-03-03T14:27:05.000Z</time>
</trkpt>
<trkpt lat="43.1061952" lon="-5.3071519">
<ele>1197.13</ele>
<time>2021-03-03T14:27:46.000Z</time>
</trkpt>
<trkpt lat="43.1060197" lon="-5.3072263">
<ele>1204.06</ele>
<time>2021-03-03T14:29:44.000Z</time>
</trkpt>
</trkseg>
</trk>
</gpx>
